This is the latest recevied weather packets stored in our database for station/object KO4DYK. If no packets are shown the sender has not sent any weather packets the latest 10 day(s).
| Time | Temp. | Humidity | Pressure | Rain* | Wind** | Luminosity | Snow |
|---|---|---|---|---|---|---|---|
| 1788210796 | 36.11° C | 53% | 1018.8 hPa | 0 mm | - | 488 W/m² | - |
| 1788210496 | 36.67° C | 52% | 1018.7 hPa | 0 mm | - | 107 W/m² | - |
| 1788210192 | 37.78° C | 49% | 1018.7 hPa | 0 mm | - | 146 W/m² | - |
| 1788209892 | 36.67° C | 53% | 1018.8 hPa | 0 mm | - | 522 W/m² | - |
| 1788209588 | 36.11° C | 53% | 1019 hPa | 0 mm | - | 544 W/m² | - |
| 1788209282 | 35.56° C | 54% | 1018.8 hPa | 0 mm | - | 200 W/m² | - |
| 1788208982 | 35.56° C | 53% | 1018.9 hPa | 0 mm | - | 115 W/m² | - |
| 1788208680 | 36.11° C | 51% | 1018.9 hPa | 0 mm | - | 96 W/m² | - |
| 1788208375 | 36.67° C | 49% | 1018.9 hPa | 0 mm | - | 111 W/m² | - |
| 1788208073 | 37.22° C | 49% | 1018.8 hPa | 0 mm | - | 622 W/m² | - |
| 1788207769 | 37.22° C | 49% | 1019 hPa | 0 mm | - | 614 W/m² | - |
| 1788207468 | 35.56° C | 54% | 1019.1 hPa | 0 mm | - | 589 W/m² | - |
| 1788207167 | 35° C | 54% | 1019.2 hPa | 0 mm | - | 117 W/m² | - |
| 1788206864 | 36.11° C | 52% | 1019.1 hPa | 0 mm | - | 87 W/m² | - |
| 1788206564 | 37.22° C | 50% | 1019.1 hPa | 0 mm | - | 118 W/m² | - |
| 1788206259 | 37.22° C | 51% | 1019.1 hPa | 0 mm | - | 163 W/m² | - |
| 1788205955 | 36.67° C | 52% | 1019.4 hPa | 0 mm | - | 239 W/m² | - |
| 1788205650 | 36.67° C | 50% | 1019.2 hPa | 0 mm | - | 117 W/m² | - |
| 1788205347 | 36.67° C | 49% | 1019.3 hPa | 0 mm | - | 443 W/m² | - |
| 1788205045 | 37.78° C | 48% | 1019.4 hPa | 0 mm | - | 762 W/m² | - |
| 1788204741 | 38.89° C | 46% | 1019.4 hPa | 0 mm | - | 763 W/m² | - |
| 1788204436 | 37.78° C | 47% | 1019.4 hPa | 0 mm | - | 748 W/m² | - |
| 1788204131 | 36.67° C | 53% | 1019.6 hPa | 0 mm | - | 731 W/m² | - |
| 1788203827 | 37.78° C | 48% | 1019.5 hPa | 0 mm | - | 729 W/m² | - |
| 1788203523 | 38.33° C | 46% | 1019.8 hPa | 0 mm | - | 741 W/m² | - |
* Rain latest hour (hover to see other rain measurements)
** Current wind speed in m/s (hover to see current wind gust speed)